createdAt,value
2022-12-01T00:03:39.904Z,15.46
2022-12-01T00:09:05.409Z,15.40
2022-12-01T00:14:08.162Z,15.34
2022-12-01T00:19:10.933Z,15.30
2022-12-01T00:24:14.980Z,15.28
2022-12-01T00:29:17.724Z,15.22
2022-12-01T00:34:23.996Z,15.17
2022-12-01T00:39:28.176Z,15.15
2022-12-01T00:44:30.879Z,15.07
2022-12-01T00:49:33.600Z,15.09
2022-12-01T00:54:37.693Z,15.04
2022-12-01T00:59:40.389Z,15.00
2022-12-01T01:04:43.157Z,14.94
2022-12-01T01:09:47.510Z,14.91
2022-12-01T01:14:50.529Z,14.90
2022-12-01T01:19:53.691Z,14.85
2022-12-01T01:24:57.816Z,14.82
2022-12-01T01:30:00.445Z,14.77
2022-12-01T01:35:03.125Z,14.72
2022-12-01T01:40:08.476Z,14.70
2022-12-01T01:45:20.930Z,14.69
2022-12-01T01:50:25.641Z,14.68
2022-12-01T01:55:30.188Z,14.61
2022-12-01T02:00:32.851Z,14.58
2022-12-01T02:05:35.772Z,14.53
2022-12-01T02:10:49.833Z,14.52
2022-12-01T02:15:57.375Z,14.50
2022-12-01T02:21:18.887Z,14.51
2022-12-01T02:26:33.604Z,14.46
2022-12-01T02:31:41.176Z,14.39
2022-12-01T02:36:48.439Z,14.39
2022-12-01T02:41:53.272Z,14.35
2022-12-01T02:47:00.766Z,14.32
2022-12-01T02:52:06.188Z,14.29
2022-12-01T02:57:10.161Z,14.27
2022-12-01T03:02:24.149Z,14.27
2022-12-01T03:07:40.881Z,14.22
2022-12-01T03:12:51.699Z,14.18
2022-12-01T03:18:00.181Z,14.15
2022-12-01T03:23:07.751Z,14.12
2022-12-01T03:28:27.397Z,14.11
2022-12-01T03:33:35.596Z,14.05
2022-12-01T03:38:38.541Z,14.05
2022-12-01T03:43:43.572Z,14.05
2022-12-01T03:48:47.606Z,13.99
2022-12-01T03:53:54.346Z,13.98
2022-12-01T03:58:58.946Z,13.94
2022-12-01T04:04:07.155Z,13.93
2022-12-01T04:09:09.831Z,13.92
2022-12-01T04:14:12.477Z,13.90
2022-12-01T04:19:16.679Z,13.87
2022-12-01T04:24:19.382Z,13.82
2022-12-01T04:29:22.139Z,13.84
2022-12-01T04:34:26.143Z,13.78
2022-12-01T04:39:28.808Z,13.79
2022-12-01T04:44:34.794Z,13.78
2022-12-01T04:49:39.267Z,13.76
2022-12-01T04:54:41.972Z,13.75
2022-12-01T04:59:44.569Z,13.73
2022-12-01T05:04:48.880Z,13.72
2022-12-01T05:09:51.885Z,13.68
2022-12-01T05:14:54.674Z,13.68
2022-12-01T05:20:15.991Z,13.68
2022-12-01T05:25:18.724Z,13.66
2022-12-01T05:30:27.006Z,13.61
2022-12-01T05:35:33.859Z,13.61
2022-12-01T05:40:36.804Z,13.59
2022-12-01T05:45:39.416Z,13.61
2022-12-01T05:50:43.538Z,13.57
2022-12-01T05:55:53.007Z,13.55
2022-12-01T06:00:55.639Z,13.54
2022-12-01T06:05:59.621Z,13.52
2022-12-01T06:11:02.207Z,13.52
2022-12-01T06:16:07.060Z,13.47
2022-12-01T06:21:11.038Z,13.48
2022-12-01T06:26:13.674Z,13.45
2022-12-01T06:31:16.414Z,13.43
2022-12-01T06:36:20.666Z,13.39
2022-12-01T06:41:23.370Z,13.41
2022-12-01T06:46:26.076Z,13.37
2022-12-01T06:51:31.196Z,13.37
2022-12-01T06:56:33.815Z,13.37
2022-12-01T07:01:36.904Z,13.32
2022-12-01T07:06:40.966Z,13.35
2022-12-01T07:11:43.590Z,13.34
2022-12-01T07:16:46.254Z,13.34
2022-12-01T07:21:50.320Z,13.31
2022-12-01T07:26:52.877Z,13.32
2022-12-01T07:31:55.429Z,13.30
2022-12-01T07:36:59.351Z,13.28
2022-12-01T07:42:01.955Z,13.29
2022-12-01T07:47:04.543Z,13.27
2022-12-01T07:52:08.487Z,13.25
2022-12-01T07:57:14.212Z,13.23
2022-12-01T08:02:16.966Z,13.23
2022-12-01T08:07:21.083Z,13.22
2022-12-01T08:12:23.898Z,13.21
2022-12-01T08:17:26.486Z,13.20
2022-12-01T08:22:30.433Z,13.20
2022-12-01T08:27:33.084Z,13.16
2022-12-01T08:32:35.701Z,13.16
2022-12-01T08:37:39.634Z,13.15
2022-12-01T08:42:42.281Z,13.19
2022-12-01T08:47:44.870Z,13.16
2022-12-01T08:52:49.668Z,13.12
2022-12-01T08:57:52.346Z,13.13
2022-12-01T09:02:54.960Z,13.27
2022-12-01T09:08:12.965Z,13.70
2022-12-01T09:13:15.660Z,14.14
2022-12-01T09:18:18.362Z,14.47
2022-12-01T09:23:23.026Z,14.76
2022-12-01T09:28:25.685Z,15.00
2022-12-01T09:33:28.786Z,15.30
2022-12-01T09:38:34.120Z,15.56
2022-12-01T09:44:05.605Z,15.80
2022-12-01T09:49:14.403Z,15.91
2022-12-01T09:54:18.548Z,16.00
2022-12-01T09:59:23.668Z,16.04
2022-12-01T10:04:29.457Z,16.07
2022-12-01T10:09:37.819Z,16.08
2022-12-01T10:14:40.545Z,16.08
2022-12-01T10:19:50.752Z,15.98
2022-12-01T10:24:59.391Z,16.02
2022-12-01T10:30:06.441Z,16.09
2022-12-01T10:35:12.020Z,16.22
2022-12-01T10:40:18.113Z,16.26
2022-12-01T10:45:24.178Z,16.28
2022-12-01T10:50:27.866Z,16.25
2022-12-01T10:55:34.232Z,16.27
2022-12-01T11:06:03.659Z,16.19
2022-12-01T11:11:08.500Z,16.22
2022-12-01T11:16:41.599Z,16.36
2022-12-01T11:21:47.900Z,16.47
2022-12-01T11:26:52.113Z,16.51
2022-12-01T11:31:54.958Z,16.68
2022-12-01T11:36:59.625Z,16.64
2022-12-01T11:42:05.240Z,16.68
2022-12-01T11:47:23.241Z,16.69
2022-12-01T11:52:30.616Z,16.69
2022-12-01T11:57:35.819Z,16.62
2022-12-01T12:02:43.859Z,16.61
2022-12-01T12:07:51.968Z,16.60
2022-12-01T12:13:07.283Z,16.71
2022-12-01T12:18:32.089Z,16.81
2022-12-01T12:24:03.508Z,16.84
2022-12-01T12:29:20.066Z,16.87
2022-12-01T12:34:33.150Z,16.90
2022-12-01T12:40:02.522Z,16.91
2022-12-01T12:45:16.036Z,16.89
2022-12-01T12:50:25.340Z,16.83
2022-12-01T12:55:31.463Z,16.87
2022-12-01T13:00:36.342Z,16.83
2022-12-01T13:05:43.853Z,16.83
2022-12-01T13:10:50.261Z,16.85
2022-12-01T13:15:55.919Z,16.86
2022-12-01T13:20:59.203Z,16.81
2022-12-01T13:26:03.133Z,16.76
2022-12-01T13:31:09.252Z,16.81
2022-12-01T13:36:45.077Z,16.79
2022-12-01T13:41:38.439Z,16.87
2022-12-01T13:46:53.971Z,16.92
2022-12-01T13:52:20.182Z,16.88
2022-12-01T13:57:27.921Z,16.82
2022-12-01T14:02:32.996Z,16.80
2022-12-01T14:07:37.466Z,16.85
2022-12-01T14:12:42.090Z,16.84
2022-12-01T14:17:46.280Z,16.87
2022-12-01T14:22:50.348Z,16.80
2022-12-01T14:27:55.173Z,16.87
2022-12-01T14:33:31.080Z,16.88
2022-12-01T14:38:35.119Z,16.85
2022-12-01T14:43:53.528Z,16.87
2022-12-01T14:48:56.564Z,16.87
2022-12-01T14:54:03.235Z,16.89
2022-12-01T14:59:16.428Z,16.82
2022-12-01T15:04:19.739Z,16.79
2022-12-01T15:09:33.596Z,16.82
2022-12-01T15:14:38.533Z,16.83
2022-12-01T15:19:43.922Z,16.81
2022-12-01T15:24:48.247Z,16.82
2022-12-01T15:29:51.548Z,16.81
2022-12-01T15:34:55.697Z,16.83
2022-12-01T15:40:54.096Z,16.79
2022-12-01T15:45:26.338Z,16.80
2022-12-01T15:50:31.264Z,16.75
2022-12-01T15:55:36.783Z,16.72
2022-12-01T16:00:39.462Z,16.63
2022-12-01T16:05:45.171Z,16.65
2022-12-01T16:11:13.063Z,16.52
2022-12-01T16:16:43.316Z,16.32
2022-12-01T16:21:48.230Z,16.28
2022-12-01T16:26:55.329Z,16.15
2022-12-01T16:32:26.447Z,16.04
2022-12-01T16:37:29.147Z,16.04
2022-12-01T16:42:33.201Z,15.91
2022-12-01T16:47:35.935Z,15.87
2022-12-01T16:52:46.190Z,15.78
2022-12-01T16:57:50.282Z,15.70
2022-12-01T17:02:53.632Z,15.64
2022-12-01T17:07:56.549Z,15.56
2022-12-01T17:13:00.616Z,15.48
2022-12-01T17:18:03.324Z,15.43
2022-12-01T17:23:06.457Z,15.28
2022-12-01T17:28:10.505Z,15.27
2022-12-01T17:33:13.517Z,15.18
2022-12-01T17:38:16.206Z,15.16
2022-12-01T17:43:20.852Z,15.16
2022-12-01T17:48:23.588Z,15.06
2022-12-01T17:53:27.694Z,15.03
2022-12-01T17:58:32.555Z,15.02
2022-12-01T18:03:35.268Z,14.94
2022-12-01T18:08:38.519Z,14.85
2022-12-01T18:13:49.805Z,14.83
2022-12-01T18:18:53.026Z,14.77
2022-12-01T18:23:57.314Z,14.70
2022-12-01T18:29:02.704Z,14.68
2022-12-01T18:34:06.945Z,14.58
2022-12-01T18:39:10.525Z,14.54
2022-12-01T18:44:14.576Z,14.51
2022-12-01T18:49:17.193Z,14.48
2022-12-01T18:54:19.829Z,14.39
2022-12-01T18:59:24.926Z,14.36
2022-12-01T19:04:27.654Z,14.31
2022-12-01T19:09:30.378Z,14.27
2022-12-01T19:14:34.566Z,14.35
2022-12-01T19:19:37.830Z,14.62
2022-12-01T19:24:40.607Z,14.95
2022-12-01T19:29:44.711Z,15.25
2022-12-01T19:34:49.245Z,15.47
2022-12-01T19:39:52.541Z,15.66
2022-12-01T19:44:56.790Z,15.91
2022-12-01T19:49:59.437Z,16.08
2022-12-01T19:55:02.093Z,16.23
2022-12-01T20:00:07.469Z,16.36
2022-12-01T20:05:14.676Z,16.39
2022-12-01T20:10:19.990Z,16.43
2022-12-01T20:15:24.104Z,16.45
2022-12-01T20:20:27.375Z,16.40
2022-12-01T20:25:30.314Z,16.33
2022-12-01T20:30:34.416Z,16.37
2022-12-01T20:35:37.058Z,16.28
2022-12-01T20:40:39.713Z,16.30
2022-12-01T20:45:43.867Z,16.40
2022-12-01T20:50:46.557Z,16.45
2022-12-01T20:55:49.643Z,16.53
2022-12-01T21:00:54.194Z,16.64
2022-12-01T21:06:00.446Z,16.60
2022-12-01T21:11:06.271Z,16.54
2022-12-01T21:16:15.125Z,16.56
2022-12-01T21:21:24.592Z,16.47
2022-12-01T21:26:27.356Z,16.40
2022-12-01T21:31:33.016Z,16.35
2022-12-01T21:36:35.887Z,16.33
2022-12-01T21:41:38.913Z,16.50
2022-12-01T21:46:43.251Z,16.59
2022-12-01T21:51:46.116Z,16.64
2022-12-01T21:56:49.177Z,16.62
2022-12-01T22:01:55.127Z,16.65
2022-12-01T22:06:58.648Z,16.62
2022-12-01T22:12:06.983Z,16.62
2022-12-01T22:17:16.713Z,16.51
2022-12-01T22:22:24.240Z,16.51
2022-12-01T22:27:29.492Z,16.48
2022-12-01T22:32:45.409Z,16.44
2022-12-01T22:37:49.795Z,16.59
2022-12-01T22:42:52.533Z,16.58
2022-12-01T22:47:58.862Z,16.61
2022-12-01T22:53:07.787Z,16.64
2022-12-01T22:58:20.533Z,16.58
2022-12-01T23:03:24.683Z,16.55
2022-12-01T23:08:27.475Z,16.45
2022-12-01T23:13:30.255Z,16.39
2022-12-01T23:18:34.405Z,16.34
2022-12-01T23:23:38.303Z,16.28
2022-12-01T23:28:41.447Z,16.18
2022-12-01T23:33:45.569Z,16.08
2022-12-01T23:38:51.256Z,16.06
2022-12-01T23:43:55.138Z,15.88
2022-12-01T23:49:01.053Z,15.78
2022-12-01T23:54:09.561Z,15.62
2022-12-01T23:59:13.832Z,15.54
